sensor_id;sensor_type;location;lat;lon;timestamp;pressure;altitude;pressure_sealevel;temperature;humidity
13029;BME280;6581;42.662;23.402;2023-05-28T00:00:47;95235.06;;;15.96;100.00
13029;BME280;6581;42.662;23.402;2023-05-28T00:03:15;95234.31;;;15.96;100.00
13029;BME280;6581;42.662;23.402;2023-05-28T00:05:44;95242.78;;;15.84;100.00
13029;BME280;6581;42.662;23.402;2023-05-28T00:08:11;95239.66;;;15.96;100.00
13029;BME280;6581;42.662;23.402;2023-05-28T00:10:39;95244.53;;;16.08;100.00
13029;BME280;6581;42.662;23.402;2023-05-28T00:13:06;95240.72;;;16.06;100.00
13029;BME280;6581;42.662;23.402;2023-05-28T00:15:33;95240.66;;;16.16;100.00
13029;BME280;6581;42.662;23.402;2023-05-28T00:18:03;95247.59;;;16.07;100.00
13029;BME280;6581;42.662;23.402;2023-05-28T00:20:31;95234.69;;;15.98;100.00
13029;BME280;6581;42.662;23.402;2023-05-28T00:22:58;95241.53;;;16.03;100.00
13029;BME280;6581;42.662;23.402;2023-05-28T00:25:26;95230.44;;;16.04;100.00
13029;BME280;6581;42.662;23.402;2023-05-28T00:27:53;95231.72;;;15.85;100.00
13029;BME280;6581;42.662;23.402;2023-05-28T00:30:20;95224.88;;;15.84;100.00
13029;BME280;6581;42.662;23.402;2023-05-28T00:32:49;95224.09;;;15.84;100.00
13029;BME280;6581;42.662;23.402;2023-05-28T00:35:16;95222.63;;;15.72;100.00
13029;BME280;6581;42.662;23.402;2023-05-28T00:37:44;95226.44;;;15.75;100.00
13029;BME280;6581;42.662;23.402;2023-05-28T00:40:11;95221.91;;;15.72;100.00
13029;BME280;6581;42.662;23.402;2023-05-28T00:42:41;95218.44;;;15.75;100.00
13029;BME280;6581;42.662;23.402;2023-05-28T00:45:09;95211.31;;;15.54;100.00
13029;BME280;6581;42.662;23.402;2023-05-28T00:47:37;95209.84;;;15.39;100.00
13029;BME280;6581;42.662;23.402;2023-05-28T00:50:06;95209.13;;;15.35;100.00
13029;BME280;6581;42.662;23.402;2023-05-28T00:52:34;95211.44;;;15.26;100.00
13029;BME280;6581;42.662;23.402;2023-05-28T00:55:07;95206.50;;;15.21;100.00
13029;BME280;6581;42.662;23.402;2023-05-28T00:57:39;95208.78;;;15.22;100.00
13029;BME280;6581;42.662;23.402;2023-05-28T01:00:08;95197.66;;;15.34;100.00
13029;BME280;6581;42.662;23.402;2023-05-28T01:02:35;95202.34;;;15.16;100.00
13029;BME280;6581;42.662;23.402;2023-05-28T01:05:03;95204.25;;;15.12;100.00
13029;BME280;6581;42.662;23.402;2023-05-28T01:07:30;95208.44;;;15.13;100.00
13029;BME280;6581;42.662;23.402;2023-05-28T01:09:58;95212.19;;;15.23;100.00
13029;BME280;6581;42.662;23.402;2023-05-28T01:12:27;95198.84;;;15.26;100.00
13029;BME280;6581;42.662;23.402;2023-05-28T01:14:57;95196.56;;;15.28;100.00
13029;BME280;6581;42.662;23.402;2023-05-28T01:17:24;95192.13;;;14.93;100.00
13029;BME280;6581;42.662;23.402;2023-05-28T01:19:52;95192.13;;;14.97;100.00
13029;BME280;6581;42.662;23.402;2023-05-28T01:22:21;95182.59;;;14.96;100.00
13029;BME280;6581;42.662;23.402;2023-05-28T01:24:55;95184.13;;;14.93;100.00
13029;BME280;6581;42.662;23.402;2023-05-28T01:27:23;95186.84;;;14.83;100.00
13029;BME280;6581;42.662;23.402;2023-05-28T01:29:50;95185.69;;;14.84;100.00
13029;BME280;6581;42.662;23.402;2023-05-28T01:32:18;95200.13;;;14.93;100.00
13029;BME280;6581;42.662;23.402;2023-05-28T01:34:45;95197.47;;;14.93;100.00
13029;BME280;6581;42.662;23.402;2023-05-28T01:37:13;95195.94;;;14.92;100.00
13029;BME280;6581;42.662;23.402;2023-05-28T01:39:44;95201.31;;;14.89;100.00
13029;BME280;6581;42.662;23.402;2023-05-28T01:42:15;95187.56;;;14.90;100.00
13029;BME280;6581;42.662;23.402;2023-05-28T01:44:42;95183.41;;;14.89;100.00
13029;BME280;6581;42.662;23.402;2023-05-28T01:47:11;95185.72;;;14.80;100.00
13029;BME280;6581;42.662;23.402;2023-05-28T01:49:41;95183.38;;;14.93;100.00
13029;BME280;6581;42.662;23.402;2023-05-28T01:52:09;95183.72;;;15.02;100.00
13029;BME280;6581;42.662;23.402;2023-05-28T01:54:38;95176.91;;;14.94;100.00
13029;BME280;6581;42.662;23.402;2023-05-28T01:57:06;95176.50;;;14.95;100.00
13029;BME280;6581;42.662;23.402;2023-05-28T01:59:34;95177.25;;;15.03;100.00
13029;BME280;6581;42.662;23.402;2023-05-28T02:02:02;95178.06;;;14.89;100.00
13029;BME280;6581;42.662;23.402;2023-05-28T02:04:29;95179.19;;;14.88;100.00
13029;BME280;6581;42.662;23.402;2023-05-28T02:06:56;95175.38;;;14.86;100.00
13029;BME280;6581;42.662;23.402;2023-05-28T02:09:25;95184.56;;;14.85;100.00
13029;BME280;6581;42.662;23.402;2023-05-28T02:11:52;95187.16;;;14.99;100.00
13029;BME280;6581;42.662;23.402;2023-05-28T02:14:19;95183.69;;;15.09;100.00
13029;BME280;6581;42.662;23.402;2023-05-28T02:16:48;95178.72;;;15.11;100.00
13029;BME280;6581;42.662;23.402;2023-05-28T02:19:15;95178.75;;;15.00;100.00
13029;BME280;6581;42.662;23.402;2023-05-28T02:21:43;95180.28;;;15.01;100.00
13029;BME280;6581;42.662;23.402;2023-05-28T02:24:10;95181.03;;;15.05;100.00
13029;BME280;6581;42.662;23.402;2023-05-28T02:26:37;95188.66;;;15.00;100.00
13029;BME280;6581;42.662;23.402;2023-05-28T02:29:04;95194.75;;;15.07;100.00
13029;BME280;6581;42.662;23.402;2023-05-28T02:31:31;95195.13;;;15.06;100.00
13029;BME280;6581;42.662;23.402;2023-05-28T02:34:00;95195.13;;;15.06;100.00
13029;BME280;6581;42.662;23.402;2023-05-28T02:36:27;95191.31;;;15.03;100.00
13029;BME280;6581;42.662;23.402;2023-05-28T02:38:56;95190.19;;;15.01;100.00
13029;BME280;6581;42.662;23.402;2023-05-28T02:41:23;95186.78;;;14.90;100.00
13029;BME280;6581;42.662;23.402;2023-05-28T02:43:53;95184.50;;;14.92;100.00
13029;BME280;6581;42.662;23.402;2023-05-28T02:46:20;95193.22;;;15.06;100.00
13029;BME280;6581;42.662;23.402;2023-05-28T02:48:47;95189.38;;;15.15;100.00
13029;BME280;6581;42.662;23.402;2023-05-28T02:51:18;95191.25;;;15.21;100.00
13029;BME280;6581;42.662;23.402;2023-05-28T02:53:54;95193.44;;;15.37;100.00
13029;BME280;6581;42.662;23.402;2023-05-28T02:56:23;95198.78;;;15.37;100.00
13029;BME280;6581;42.662;23.402;2023-05-28T02:58:51;95204.56;;;15.25;100.00
13029;BME280;6581;42.662;23.402;2023-05-28T03:01:19;95200.34;;;15.31;100.00
13029;BME280;6581;42.662;23.402;2023-05-28T03:03:47;95193.47;;;15.33;100.00
13029;BME280;6581;42.662;23.402;2023-05-28T03:06:14;95193.53;;;15.19;100.00
13029;BME280;6581;42.662;23.402;2023-05-28T03:08:49;95195.06;;;15.24;100.00
13029;BME280;6581;42.662;23.402;2023-05-28T03:11:16;95196.16;;;15.33;100.00
13029;BME280;6581;42.662;23.402;2023-05-28T03:13:43;95195.69;;;15.45;100.00
13029;BME280;6581;42.662;23.402;2023-05-28T03:16:11;95200.31;;;15.38;100.00
13029;BME280;6581;42.662;23.402;2023-05-28T03:18:38;95196.91;;;15.34;100.00
13029;BME280;6581;42.662;23.402;2023-05-28T03:21:07;95204.06;;;15.47;100.00
13029;BME280;6581;42.662;23.402;2023-05-28T03:23:35;95201.44;;;15.44;100.00
13029;BME280;6581;42.662;23.402;2023-05-28T03:26:33;95201.44;;;15.40;100.00
13029;BME280;6581;42.662;23.402;2023-05-28T03:29:00;95195.34;;;15.43;100.00
13029;BME280;6581;42.662;23.402;2023-05-28T03:31:56;95199.84;;;15.50;100.00
13029;BME280;6581;42.662;23.402;2023-05-28T03:34:24;95199.84;;;15.50;100.00
13029;BME280;6581;42.662;23.402;2023-05-28T03:36:51;95195.63;;;15.60;100.00
13029;BME280;6581;42.662;23.402;2023-05-28T03:39:19;95211.34;;;15.43;100.00
13029;BME280;6581;42.662;23.402;2023-05-28T03:41:50;95210.19;;;15.51;100.00
13029;BME280;6581;42.662;23.402;2023-05-28T03:44:18;95206.78;;;15.44;100.00
13029;BME280;6581;42.662;23.402;2023-05-28T03:46:47;95206.72;;;15.58;100.00
13029;BME280;6581;42.662;23.402;2023-05-28T03:49:15;95205.56;;;15.63;100.00
13029;BME280;6581;42.662;23.402;2023-05-28T03:51:42;95205.13;;;15.68;100.00
13029;BME280;6581;42.662;23.402;2023-05-28T03:54:10;95207.72;;;15.78;100.00
13029;BME280;6581;42.662;23.402;2023-05-28T03:56:37;95213.78;;;15.86;100.00
13029;BME280;6581;42.662;23.402;2023-05-28T03:59:07;95203.47;;;15.88;100.00
13029;BME280;6581;42.662;23.402;2023-05-28T04:01:34;95205.06;;;15.78;100.00
13029;BME280;6581;42.662;23.402;2023-05-28T04:04:02;95207.75;;;15.75;100.00
13029;BME280;6581;42.662;23.402;2023-05-28T04:06:30;95214.59;;;15.79;100.00
13029;BME280;6581;42.662;23.402;2023-05-28T04:08:58;95206.91;;;15.88;100.00
13029;BME280;6581;42.662;23.402;2023-05-28T04:11:25;95213.75;;;15.89;100.00
13029;BME280;6581;42.662;23.402;2023-05-28T04:13:55;95216.84;;;15.84;100.00
13029;BME280;6581;42.662;23.402;2023-05-28T04:16:24;95219.91;;;15.83;100.00
13029;BME280;6581;42.662;23.402;2023-05-28T04:18:51;95222.63;;;15.76;100.00
13029;BME280;6581;42.662;23.402;2023-05-28T04:21:18;95209.25;;;15.79;100.00
13029;BME280;6581;42.662;23.402;2023-05-28T04:23:46;95214.16;;;15.88;100.00
13029;BME280;6581;42.662;23.402;2023-05-28T04:26:13;95207.22;;;15.98;100.00
13029;BME280;6581;42.662;23.402;2023-05-28T04:28:40;95212.63;;;15.87;100.00
13029;BME280;6581;42.662;23.402;2023-05-28T04:31:08;95216.38;;;15.96;100.00
13029;BME280;6581;42.662;23.402;2023-05-28T04:33:37;95220.13;;;16.06;100.00
13029;BME280;6581;42.662;23.402;2023-05-28T04:36:05;95222.34;;;16.15;100.00
13029;BME280;6581;42.662;23.402;2023-05-28T04:38:34;95213.97;;;16.13;100.00
13029;BME280;6581;42.662;23.402;2023-05-28T04:41:01;95218.09;;;16.21;100.00
13029;BME280;6581;42.662;23.402;2023-05-28T04:43:30;95222.25;;;16.25;100.00
13029;BME280;6581;42.662;23.402;2023-05-28T04:45:59;95220.28;;;16.33;100.00
13029;BME280;6581;42.662;23.402;2023-05-28T04:48:26;95224.84;;;16.36;100.00
13029;BME280;6581;42.662;23.402;2023-05-28T04:50:54;95227.06;;;16.41;100.00
13029;BME280;6581;42.662;23.402;2023-05-28T04:53:22;95230.84;;;16.47;100.00
13029;BME280;6581;42.662;23.402;2023-05-28T04:55:49;95224.44;;;16.37;100.00
13029;BME280;6581;42.662;23.402;2023-05-28T04:58:16;95230.59;;;16.34;100.00
13029;BME280;6581;42.662;23.402;2023-05-28T05:00:43;95222.13;;;16.39;100.00
13029;BME280;6581;42.662;23.402;2023-05-28T05:03:10;95227.72;;;16.56;100.00
13029;BME280;6581;42.662;23.402;2023-05-28T05:05:37;95233.03;;;16.59;100.00
13029;BME280;6581;42.662;23.402;2023-05-28T05:08:07;95227.38;;;16.54;100.00
13029;BME280;6581;42.662;23.402;2023-05-28T05:10:37;95232.28;;;16.62;100.00
13029;BME280;6581;42.662;23.402;2023-05-28T05:13:05;95230.38;;;16.59;100.00
13029;BME280;6581;42.662;23.402;2023-05-28T05:15:32;95222.34;;;16.56;100.00
13029;BME280;6581;42.662;23.402;2023-05-28T05:18:00;95216.28;;;16.52;100.00
13029;BME280;6581;42.662;23.402;2023-05-28T05:20:27;95224.31;;;16.52;100.00
13029;BME280;6581;42.662;23.402;2023-05-28T05:22:55;95221.97;;;16.57;100.00
13029;BME280;6581;42.662;23.402;2023-05-28T05:25:24;95230.72;;;16.65;100.00
13029;BME280;6581;42.662;23.402;2023-05-28T05:27:53;95221.78;;;16.78;100.00
13029;BME280;6581;42.662;23.402;2023-05-28T05:30:21;95223.00;;;16.70;100.00
13029;BME280;6581;42.662;23.402;2023-05-28T05:32:48;95219.00;;;16.48;100.00
13029;BME280;6581;42.662;23.402;2023-05-28T05:35:16;95214.09;;;16.43;100.00
13029;BME280;6581;42.662;23.402;2023-05-28T05:38:17;95217.00;;;16.59;100.00
13029;BME280;6581;42.662;23.402;2023-05-28T05:41:14;95222.28;;;16.66;100.00
13029;BME280;6581;42.662;23.402;2023-05-28T05:43:47;95224.41;;;16.86;100.00
13029;BME280;6581;42.662;23.402;2023-05-28T05:46:14;95220.38;;;17.04;100.00
13029;BME280;6581;42.662;23.402;2023-05-28T05:48:41;95221.22;;;17.28;100.00
13029;BME280;6581;42.662;23.402;2023-05-28T05:51:08;95228.72;;;17.40;100.00
13029;BME280;6581;42.662;23.402;2023-05-28T05:53:43;95227.25;;;17.36;100.00
13029;BME280;6581;42.662;23.402;2023-05-28T05:56:10;95228.72;;;17.40;100.00
13029;BME280;6581;42.662;23.402;2023-05-28T05:58:39;95229.13;;;17.39;100.00
13029;BME280;6581;42.662;23.402;2023-05-28T06:01:08;95230.53;;;17.47;100.00
13029;BME280;6581;42.662;23.402;2023-05-28T06:03:35;95223.94;;;17.55;100.00
13029;BME280;6581;42.662;23.402;2023-05-28T06:06:23;95229.28;;;17.58;100.00
13029;BME280;6581;42.662;23.402;2023-05-28T06:09:09;95223.59;;;17.53;100.00
13029;BME280;6581;42.662;23.402;2023-05-28T06:11:43;95225.88;;;17.51;100.00
13029;BME280;6581;42.662;23.402;2023-05-28T06:14:13;95229.00;;;17.49;100.00
13029;BME280;6581;42.662;23.402;2023-05-28T06:16:42;95233.47;;;17.59;100.00
13029;BME280;6581;42.662;23.402;2023-05-28T06:19:09;95232.22;;;17.67;100.00
13029;BME280;6581;42.662;23.402;2023-05-28T06:21:36;95239.09;;;17.68;100.00
13029;BME280;6581;42.662;23.402;2023-05-28T06:24:04;95236.06;;;17.66;100.00
13029;BME280;6581;42.662;23.402;2023-05-28T06:26:32;95237.16;;;17.39;100.00
13029;BME280;6581;42.662;23.402;2023-05-28T06:28:59;95235.56;;;17.45;100.00
13029;BME280;6581;42.662;23.402;2023-05-28T06:31:29;95233.97;;;17.47;100.00
13029;BME280;6581;42.662;23.402;2023-05-28T06:33:56;95243.25;;;17.39;100.00
13029;BME280;6581;42.662;23.402;2023-05-28T06:36:23;95244.09;;;17.36;100.00
13029;BME280;6581;42.662;23.402;2023-05-28T06:38:50;95245.56;;;17.37;100.00
13029;BME280;6581;42.662;23.402;2023-05-28T06:41:17;95244.53;;;17.31;100.00
13029;BME280;6581;42.662;23.402;2023-05-28T06:43:48;95244.56;;;17.27;100.00
13029;BME280;6581;42.662;23.402;2023-05-28T06:46:17;95241.47;;;17.29;100.00
13029;BME280;6581;42.662;23.402;2023-05-28T06:48:48;95241.44;;;16.99;100.00
13029;BME280;6581;42.662;23.402;2023-05-28T06:51:15;95242.06;;;17.13;100.00
13029;BME280;6581;42.662;23.402;2023-05-28T06:53:42;95244.00;;;17.09;100.00
13029;BME280;6581;42.662;23.402;2023-05-28T06:56:12;95250.53;;;17.08;100.00
13029;BME280;6581;42.662;23.402;2023-05-28T06:58:39;95242.06;;;17.13;100.00
13029;BME280;6581;42.662;23.402;2023-05-28T07:01:17;95244.72;;;17.13;100.00
13029;BME280;6581;42.662;23.402;2023-05-28T07:03:59;95246.00;;;17.36;100.00
13029;BME280;6581;42.662;23.402;2023-05-28T07:06:36;95252.66;;;17.51;100.00
13029;BME280;6581;42.662;23.402;2023-05-28T07:09:05;95249.72;;;17.76;100.00
13029;BME280;6581;42.662;23.402;2023-05-28T07:11:33;95242.75;;;17.82;100.00
13029;BME280;6581;42.662;23.402;2023-05-28T07:14:00;95251.31;;;18.46;100.00
13029;BME280;6581;42.662;23.402;2023-05-28T07:16:27;95249.72;;;18.95;100.00
13029;BME280;6581;42.662;23.402;2023-05-28T07:18:54;95242.28;;;19.42;100.00
13029;BME280;6581;42.662;23.402;2023-05-28T07:21:24;95250.41;;;19.59;100.00
13029;BME280;6581;42.662;23.402;2023-05-28T07:23:51;95247.25;;;19.64;99.10
13029;BME280;6581;42.662;23.402;2023-05-28T07:26:18;95243.81;;;19.43;99.24
13029;BME280;6581;42.662;23.402;2023-05-28T07:28:46;95246.72;;;19.33;99.22
13029;BME280;6581;42.662;23.402;2023-05-28T07:31:13;95240.00;;;19.41;100.00
13029;BME280;6581;42.662;23.402;2023-05-28T07:33:40;95235.41;;;19.41;100.00
13029;BME280;6581;42.662;23.402;2023-05-28T07:36:09;95239.56;;;19.46;100.00
13029;BME280;6581;42.662;23.402;2023-05-28T07:38:39;95236.91;;;19.03;100.00
13029;BME280;6581;42.662;23.402;2023-05-28T07:41:06;95238.69;;;18.90;99.85
13029;BME280;6581;42.662;23.402;2023-05-28T07:43:40;95238.19;;;18.55;100.00
13029;BME280;6581;42.662;23.402;2023-05-28T07:46:15;95243.22;;;18.50;100.00
13029;BME280;6581;42.662;23.402;2023-05-28T07:48:47;95240.13;;;18.28;100.00
13029;BME280;6581;42.662;23.402;2023-05-28T07:51:36;95241.53;;;18.36;100.00
13029;BME280;6581;42.662;23.402;2023-05-28T07:54:25;95237.22;;;18.19;100.00
13029;BME280;6581;42.662;23.402;2023-05-28T07:56:52;95233.22;;;18.04;100.00
13029;BME280;6581;42.662;23.402;2023-05-28T07:59:26;95230.88;;;18.06;100.00
13029;BME280;6581;42.662;23.402;2023-05-28T08:01:54;95237.06;;;18.03;100.00
13029;BME280;6581;42.662;23.402;2023-05-28T08:04:22;95232.28;;;17.64;100.00
13029;BME280;6581;42.662;23.402;2023-05-28T08:06:49;95226.81;;;17.41;100.00
13029;BME280;6581;42.662;23.402;2023-05-28T08:09:17;95233.94;;;17.20;100.00
13029;BME280;6581;42.662;23.402;2023-05-28T08:11:51;95230.50;;;17.20;100.00
13029;BME280;6581;42.662;23.402;2023-05-28T08:14:19;95234.66;;;17.55;100.00
13029;BME280;6581;42.662;23.402;2023-05-28T08:16:49;95243.97;;;18.27;100.00
13029;BME280;6581;42.662;23.402;2023-05-28T08:19:36;95218.00;;;18.44;100.00
13029;BME280;6581;42.662;23.402;2023-05-28T08:22:12;95223.84;;;19.44;100.00
13029;BME280;6581;42.662;23.402;2023-05-28T08:24:39;95234.38;;;19.91;95.91
13029;BME280;6581;42.662;23.402;2023-05-28T08:27:08;95237.28;;;19.80;93.09
13029;BME280;6581;42.662;23.402;2023-05-28T08:29:35;95234.72;;;20.09;95.70
13029;BME280;6581;42.662;23.402;2023-05-28T08:32:05;95235.88;;;19.92;95.89
13029;BME280;6581;42.662;23.402;2023-05-28T08:34:38;95246.00;;;19.48;93.89
13029;BME280;6581;42.662;23.402;2023-05-28T08:37:05;95239.94;;;19.64;94.83
13029;BME280;6581;42.662;23.402;2023-05-28T08:39:44;95243.81;;;19.63;91.40
13029;BME280;6581;42.662;23.402;2023-05-28T08:42:13;95227.63;;;19.83;92.70
13029;BME280;6581;42.662;23.402;2023-05-28T08:44:41;95229.25;;;19.97;91.58
13029;BME280;6581;42.662;23.402;2023-05-28T08:47:08;95232.69;;;19.97;92.38
13029;BME280;6581;42.662;23.402;2023-05-28T08:49:51;95239.25;;;20.12;93.88
13029;BME280;6581;42.662;23.402;2023-05-28T08:52:22;95237.13;;;20.04;90.80
13029;BME280;6581;42.662;23.402;2023-05-28T08:54:51;95237.50;;;20.06;90.38
13029;BME280;6581;42.662;23.402;2023-05-28T08:57:20;95237.84;;;20.40;87.63
13029;BME280;6581;42.662;23.402;2023-05-28T08:59:55;95226.00;;;20.83;86.74
13029;BME280;6581;42.662;23.402;2023-05-28T09:02:24;95238.88;;;20.91;84.57
13029;BME280;6581;42.662;23.402;2023-05-28T09:04:52;95226.28;;;20.72;84.48
13029;BME280;6581;42.662;23.402;2023-05-28T09:07:22;95226.31;;;20.56;88.72
13029;BME280;6581;42.662;23.402;2023-05-28T09:09:54;95231.94;;;20.13;85.56
13029;BME280;6581;42.662;23.402;2023-05-28T09:12:26;95229.00;;;19.91;85.15
13029;BME280;6581;42.662;23.402;2023-05-28T09:15:00;95230.81;;;19.78;89.76
13029;BME280;6581;42.662;23.402;2023-05-28T09:17:33;95229.72;;;19.20;90.16
13029;BME280;6581;42.662;23.402;2023-05-28T09:20:09;95222.78;;;18.79;92.40
13029;BME280;6581;42.662;23.402;2023-05-28T09:22:39;95214.38;;;18.57;95.00
13029;BME280;6581;42.662;23.402;2023-05-28T09:25:18;95214.88;;;18.49;95.98
13029;BME280;6581;42.662;23.402;2023-05-28T09:27:58;95211.25;;;18.36;97.71
13029;BME280;6581;42.662;23.402;2023-05-28T09:30:26;95216.94;;;18.41;96.62
13029;BME280;6581;42.662;23.402;2023-05-28T09:32:55;95218.16;;;18.37;96.96
13029;BME280;6581;42.662;23.402;2023-05-28T09:35:24;95224.06;;;18.25;100.00
13029;BME280;6581;42.662;23.402;2023-05-28T09:38:03;95223.03;;;18.19;100.00
13029;BME280;6581;42.662;23.402;2023-05-28T09:40:30;95234.28;;;18.10;100.00
13029;BME280;6581;42.662;23.402;2023-05-28T09:43:03;95235.84;;;18.07;100.00
13029;BME280;6581;42.662;23.402;2023-05-28T09:45:31;95238.28;;;17.98;99.86
13029;BME280;6581;42.662;23.402;2023-05-28T09:47:59;95233.53;;;17.83;100.00
13029;BME280;6581;42.662;23.402;2023-05-28T09:50:26;95241.66;;;17.76;100.00
13029;BME280;6581;42.662;23.402;2023-05-28T09:52:55;95243.50;;;17.82;100.00
13029;BME280;6581;42.662;23.402;2023-05-28T09:55:24;95234.25;;;17.87;100.00
13029;BME280;6581;42.662;23.402;2023-05-28T09:57:58;95231.19;;;17.85;100.00
13029;BME280;6581;42.662;23.402;2023-05-28T10:00:31;95242.53;;;17.96;100.00
13029;BME280;6581;42.662;23.402;2023-05-28T10:03:06;95236.72;;;18.01;100.00
13029;BME280;6581;42.662;23.402;2023-05-28T10:05:39;95237.94;;;17.96;100.00
13029;BME280;6581;42.662;23.402;2023-05-28T10:08:11;95236.00;;;17.97;100.00
13029;BME280;6581;42.662;23.402;2023-05-28T10:10:39;95239.41;;;18.24;100.00
13029;BME280;6581;42.662;23.402;2023-05-28T10:13:07;95237.78;;;18.30;96.70
13029;BME280;6581;42.662;23.402;2023-05-28T10:15:37;95242.28;;;18.37;97.55
13029;BME280;6581;42.662;23.402;2023-05-28T10:18:05;95238.94;;;18.52;98.85
13029;BME280;6581;42.662;23.402;2023-05-28T10:20:32;95238.72;;;18.67;96.11
13029;BME280;6581;42.662;23.402;2023-05-28T10:23:00;95241.53;;;18.83;97.66
13029;BME280;6581;42.662;23.402;2023-05-28T10:25:27;95235.94;;;18.74;95.92
13029;BME280;6581;42.662;23.402;2023-05-28T10:27:58;95233.25;;;18.74;96.71
13029;BME280;6581;42.662;23.402;2023-05-28T10:30:33;95245.84;;;18.53;96.37
13029;BME280;6581;42.662;23.402;2023-05-28T10:33:04;95236.69;;;18.28;98.19
13029;BME280;6581;42.662;23.402;2023-05-28T10:35:33;95230.09;;;18.32;98.32
13029;BME280;6581;42.662;23.402;2023-05-28T10:38:05;95239.97;;;18.12;100.00
13029;BME280;6581;42.662;23.402;2023-05-28T10:40:34;95229.97;;;18.16;100.00
13029;BME280;6581;42.662;23.402;2023-05-28T10:43:02;95235.03;;;18.10;99.37
13029;BME280;6581;42.662;23.402;2023-05-28T10:45:36;95226.81;;;18.21;100.00
13029;BME280;6581;42.662;23.402;2023-05-28T10:48:06;95229.97;;;18.16;98.39
13029;BME280;6581;42.662;23.402;2023-05-28T10:50:57;95223.16;;;18.35;97.46
13029;BME280;6581;42.662;23.402;2023-05-28T10:53:26;95224.97;;;18.41;95.38
13029;BME280;6581;42.662;23.402;2023-05-28T10:55:54;95222.63;;;18.67;97.50
13029;BME280;6581;42.662;23.402;2023-05-28T10:58:26;95214.03;;;18.75;97.46
13029;BME280;6581;42.662;23.402;2023-05-28T11:01:00;95215.53;;;18.56;96.55
13029;BME280;6581;42.662;23.402;2023-05-28T11:03:52;95207.88;;;18.78;97.07
13029;BME280;6581;42.662;23.402;2023-05-28T11:06:20;95205.59;;;18.77;96.66
13029;BME280;6581;42.662;23.402;2023-05-28T11:08:48;95201.06;;;18.93;95.40
13029;BME280;6581;42.662;23.402;2023-05-28T11:11:17;95197.72;;;19.25;92.82
13029;BME280;6581;42.662;23.402;2023-05-28T11:13:45;95203.25;;;19.18;91.30
13029;BME280;6581;42.662;23.402;2023-05-28T11:16:15;95200.91;;;19.20;91.67
13029;BME280;6581;42.662;23.402;2023-05-28T11:19:01;95209.88;;;19.14;92.69
13029;BME280;6581;42.662;23.402;2023-05-28T11:21:29;95198.16;;;18.84;92.70
13029;BME280;6581;42.662;23.402;2023-05-28T11:24:01;95199.41;;;18.99;93.02
13029;BME280;6581;42.662;23.402;2023-05-28T11:26:28;95209.66;;;19.04;94.85
13029;BME280;6581;42.662;23.402;2023-05-28T11:28:56;95202.44;;;19.01;93.52
13029;BME280;6581;42.662;23.402;2023-05-28T11:31:23;95189.34;;;18.84;93.10
13029;BME280;6581;42.662;23.402;2023-05-28T11:33:50;95202.22;;;18.73;94.06
13029;BME280;6581;42.662;23.402;2023-05-28T11:36:19;95196.44;;;18.74;94.08
13029;BME280;6581;42.662;23.402;2023-05-28T11:38:47;95202.34;;;18.66;90.97
13029;BME280;6581;42.662;23.402;2023-05-28T11:41:14;95191.50;;;18.92;93.89
13029;BME280;6581;42.662;23.402;2023-05-28T11:43:41;95184.59;;;19.11;92.14
13029;BME280;6581;42.662;23.402;2023-05-28T11:46:08;95195.59;;;19.36;91.00
13029;BME280;6581;42.662;23.402;2023-05-28T11:48:37;95185.63;;;19.17;88.79
13029;BME280;6581;42.662;23.402;2023-05-28T11:51:04;95183.63;;;19.21;90.07
13029;BME280;6581;42.662;23.402;2023-05-28T11:53:41;95190.84;;;19.44;91.19
13029;BME280;6581;42.662;23.402;2023-05-28T11:56:09;95192.84;;;19.40;88.62
13029;BME280;6581;42.662;23.402;2023-05-28T11:58:37;95193.81;;;19.30;89.32
13029;BME280;6581;42.662;23.402;2023-05-28T12:01:07;95191.63;;;19.05;88.78
13029;BME280;6581;42.662;23.402;2023-05-28T12:03:34;95192.44;;;19.02;90.36
13029;BME280;6581;42.662;23.402;2023-05-28T12:06:02;95186.81;;;18.96;91.25
13029;BME280;6581;42.662;23.402;2023-05-28T12:08:29;95187.59;;;18.97;91.03
13029;BME280;6581;42.662;23.402;2023-05-28T12:11:01;95189.63;;;19.09;90.68
13029;BME280;6581;42.662;23.402;2023-05-28T12:13:33;95188.19;;;19.04;93.46
13029;BME280;6581;42.662;23.402;2023-05-28T12:16:07;95183.84;;;18.91;93.96
13029;BME280;6581;42.662;23.402;2023-05-28T12:18:40;95181.66;;;18.86;93.58
13029;BME280;6581;42.662;23.402;2023-05-28T12:21:10;95185.16;;;18.83;93.95
13029;BME280;6581;42.662;23.402;2023-05-28T12:23:38;95178.69;;;19.00;94.73
13029;BME280;6581;42.662;23.402;2023-05-28T12:26:10;95180.97;;;19.01;93.65
13029;BME280;6581;42.662;23.402;2023-05-28T12:28:38;95187.28;;;19.11;92.74
13029;BME280;6581;42.662;23.402;2023-05-28T12:31:06;95189.84;;;19.18;91.38
13029;BME280;6581;42.662;23.402;2023-05-28T12:33:34;95185.25;;;19.35;90.31
13029;BME280;6581;42.662;23.402;2023-05-28T12:36:01;95189.19;;;19.30;90.61
13029;BME280;6581;42.662;23.402;2023-05-28T12:38:28;95191.69;;;19.21;89.83
13029;BME280;6581;42.662;23.402;2023-05-28T12:40:56;95187.84;;;19.22;90.03
13029;BME280;6581;42.662;23.402;2023-05-28T12:43:25;95185.09;;;19.06;87.16
13029;BME280;6581;42.662;23.402;2023-05-28T12:45:52;95179.66;;;19.29;87.07
13029;BME280;6581;42.662;23.402;2023-05-28T12:48:19;95181.63;;;19.45;89.04
13029;BME280;6581;42.662;23.402;2023-05-28T12:50:46;95190.38;;;19.29;88.93
13029;BME280;6581;42.662;23.402;2023-05-28T12:53:13;95186.25;;;19.44;89.60
13029;BME280;6581;42.662;23.402;2023-05-28T12:55:40;95178.53;;;19.46;90.28
13029;BME280;6581;42.662;23.402;2023-05-28T12:58:08;95172.50;;;19.39;90.23
13029;BME280;6581;42.662;23.402;2023-05-28T13:00:36;95180.38;;;19.30;88.90
13029;BME280;6581;42.662;23.402;2023-05-28T13:03:03;95174.69;;;19.28;89.77
13029;BME280;6581;42.662;23.402;2023-05-28T13:05:30;95177.84;;;19.23;89.51